createdAt,value
2022-12-18T00:00:54.056Z,5.5
2022-12-18T00:06:33.301Z,5.4
2022-12-18T00:12:32.303Z,5.4
2022-12-18T00:18:01.265Z,5.3
2022-12-18T00:23:42.675Z,5.3
2022-12-18T00:29:03.841Z,5.2
2022-12-18T00:34:29.589Z,5.1
2022-12-18T00:39:55.632Z,5.1
2022-12-18T00:45:17.621Z,5
2022-12-18T00:50:56.810Z,4.9
2022-12-18T00:56:19.415Z,4.9
2022-12-18T01:02:00.075Z,4.8
2022-12-18T01:07:40.192Z,4.8
2022-12-18T01:12:47.199Z,4.7
2022-12-18T01:18:26.211Z,4.6
2022-12-18T01:23:49.294Z,4.5
2022-12-18T01:29:11.176Z,4.4
2022-12-18T01:34:02.293Z,4.3
2022-12-18T01:39:24.048Z,4.3
2022-12-18T01:45:01.584Z,4.2
2022-12-18T01:50:39.883Z,4.1
2022-12-18T01:56:17.645Z,4.1
2022-12-18T02:01:40.908Z,4
2022-12-18T02:07:07.335Z,4
2022-12-18T02:12:29.857Z,3.9
2022-12-18T02:18:17.073Z,3.9
2022-12-18T02:23:39.790Z,3.9
2022-12-18T02:28:46.970Z,3.8
2022-12-18T02:34:33.279Z,3.8
2022-12-18T02:40:10.347Z,3.8
2022-12-18T02:45:32.536Z,3.8
2022-12-18T02:51:14.800Z,3.7
2022-12-18T02:56:52.587Z,3.6
2022-12-18T03:02:15.326Z,3.6
2022-12-18T03:07:47.978Z,3.6
2022-12-18T03:13:10.401Z,3.5
2022-12-18T03:18:32.037Z,3.5
2022-12-18T03:24:01.727Z,3.4
2022-12-18T03:29:23.834Z,3.4
2022-12-18T03:35:01.747Z,3.4
2022-12-18T03:40:27.166Z,3.4
2022-12-18T03:45:49.163Z,3.3
2022-12-18T03:51:03.100Z,3.3
2022-12-18T03:56:42.806Z,3.3
2022-12-18T04:02:05.590Z,3.2
2022-12-18T04:07:13.264Z,3.2
2022-12-18T04:12:59.407Z,3.1
2022-12-18T04:18:48.530Z,3.1
2022-12-18T04:24:26.295Z,3.1
2022-12-18T04:30:06.443Z,3.1
2022-12-18T04:40:36.411Z,3
2022-12-18T04:46:22.953Z,2.9
2022-12-18T04:52:01.087Z,2.9
2022-12-18T04:57:39.123Z,2.9
2022-12-18T05:03:05.152Z,2.9
2022-12-18T05:08:44.833Z,2.9
2022-12-18T05:14:09.826Z,2.8
2022-12-18T05:19:53.479Z,2.8
2022-12-18T05:25:31.479Z,2.8
2022-12-18T05:30:37.778Z,2.8
2022-12-18T05:36:02.823Z,2.8
2022-12-18T05:41:43.399Z,2.8
2022-12-18T05:47:06.875Z,2.8
2022-12-18T05:52:58.813Z,2.8
2022-12-18T05:58:38.011Z,2.8
2022-12-18T06:03:52.294Z,2.8
2022-12-18T06:09:36.984Z,2.8
2022-12-18T06:15:15.416Z,2.8
2022-12-18T06:20:54.126Z,2.8
2022-12-18T06:26:33.728Z,2.8
2022-12-18T06:32:13.348Z,2.8
2022-12-18T06:37:45.888Z,2.8
2022-12-18T06:43:25.353Z,2.8
2022-12-18T06:48:34.972Z,2.9
2022-12-18T06:54:24.964Z,2.9
2022-12-18T07:00:18.697Z,2.9
2022-12-18T07:06:05.639Z,3
2022-12-18T07:11:47.107Z,3.1
2022-12-18T07:17:34.302Z,3.2
2022-12-18T07:23:14.145Z,3.3
2022-12-18T07:28:53.888Z,3.3
2022-12-18T07:34:17.961Z,3.4
2022-12-18T07:39:58.523Z,3.5
2022-12-18T07:45:45.420Z,3.6
2022-12-18T07:51:35.077Z,3.8
2022-12-18T07:58:28.146Z,3.9
2022-12-18T08:03:53.688Z,4.1
2022-12-18T08:09:41.037Z,4.2
2022-12-18T08:15:24.340Z,4.3
2022-12-18T08:20:53.447Z,4.4
2022-12-18T08:26:39.066Z,4.6
2022-12-18T08:32:53.829Z,4.8
2022-12-18T08:38:38.010Z,4.9
2022-12-18T08:44:17.367Z,5.1
2022-12-18T08:49:56.751Z,5.4
2022-12-18T08:55:39.154Z,5.8
2022-12-18T09:01:22.359Z,6.3
2022-12-18T09:07:02.388Z,6.7
2022-12-18T09:12:28.317Z,7.1
2022-12-18T09:18:13.311Z,7.6
2022-12-18T09:23:38.952Z,8.1
2022-12-18T09:29:05.197Z,8.6
2022-12-18T09:34:45.561Z,9.1
2022-12-18T09:40:13.273Z,9.4
2022-12-18T09:45:57.383Z,9.6
2022-12-18T09:51:44.776Z,10.1
2022-12-18T09:57:08.158Z,10.8
2022-12-18T10:02:55.853Z,11.3
2022-12-18T10:08:21.837Z,11.4
2022-12-18T10:14:01.321Z,11.6
2022-12-18T10:19:38.524Z,11.7
2022-12-18T10:25:17.940Z,12.4
2022-12-18T10:31:02.846Z,13.4
2022-12-18T10:36:44.978Z,13.9
2022-12-18T10:42:41.846Z,14.5
2022-12-18T10:48:24.286Z,14.9
2022-12-18T10:54:46.905Z,15.1
2022-12-18T11:00:34.720Z,14.9
2022-12-18T11:06:20.480Z,14.8
2022-12-18T11:11:49.896Z,14.6
2022-12-18T11:17:26.802Z,14.3
2022-12-18T11:23:00.808Z,14.1
2022-12-18T11:29:01.934Z,13.8
2022-12-18T11:35:01.545Z,13.4
2022-12-18T11:40:30.877Z,13.1
2022-12-18T11:45:59.384Z,12.7
2022-12-18T11:51:28.209Z,12.4
2022-12-18T11:57:14.859Z,11.9
2022-12-18T12:02:57.190Z,11.4
2022-12-18T12:08:49.177Z,11.1
2022-12-18T12:14:34.968Z,10.7
2022-12-18T12:20:13.922Z,10.3
2022-12-18T12:26:04.602Z,10
2022-12-18T12:31:46.835Z,9.8
2022-12-18T12:37:01.158Z,9.6
2022-12-18T12:42:32.825Z,9.4
2022-12-18T12:48:14.222Z,9.2
2022-12-18T12:53:45.474Z,9
2022-12-18T12:59:02.664Z,8.9
2022-12-18T13:04:36.289Z,8.7
2022-12-18T13:10:08.478Z,8.5
2022-12-18T13:15:46.050Z,8.3
2022-12-18T13:21:19.791Z,8.2
2022-12-18T13:26:46.088Z,8.1
2022-12-18T13:32:31.329Z,7.9
2022-12-18T13:38:47.373Z,7.8
2022-12-18T13:44:40.150Z,7.7
2022-12-18T13:50:22.813Z,7.5
2022-12-18T13:55:56.852Z,7.3
2022-12-18T14:01:43.643Z,7.1
2022-12-18T14:07:33.105Z,6.9
2022-12-18T14:14:04.993Z,6.8
2022-12-18T14:20:00.531Z,6.6
2022-12-18T14:25:43.594Z,6.4
2022-12-18T14:31:20.132Z,6.2
2022-12-18T14:37:06.704Z,6
2022-12-18T14:42:53.160Z,5.9
2022-12-18T14:48:57.546Z,5.7
2022-12-18T14:54:27.471Z,5.5
2022-12-18T15:00:12.615Z,5.3
2022-12-18T15:06:03.822Z,5.1
2022-12-18T15:11:30.040Z,5
2022-12-18T15:17:16.213Z,4.8
2022-12-18T15:22:42.118Z,4.6
2022-12-18T15:28:21.307Z,4.5
2022-12-18T15:33:51.552Z,4.4
2022-12-18T15:38:48.081Z,4.3
2022-12-18T15:44:35.658Z,4.2
2022-12-18T15:50:00.899Z,4.1
2022-12-18T15:55:43.006Z,3.9
2022-12-18T16:01:26.689Z,3.9
2022-12-18T16:07:47.627Z,3.8
2022-12-18T16:13:30.652Z,3.6
2022-12-18T16:18:56.396Z,3.6
2022-12-18T16:24:43.203Z,3.5
2022-12-18T16:30:13.989Z,3.4
2022-12-18T16:36:05.320Z,3.4
2022-12-18T16:41:33.842Z,3.3
2022-12-18T16:47:07.201Z,3.3
2022-12-18T16:52:35.418Z,3.2
2022-12-18T16:58:04.028Z,3.1
2022-12-18T17:03:39.175Z,3.1
2022-12-18T17:09:06.035Z,3
2022-12-18T17:14:35.956Z,2.9
2022-12-18T17:20:15.063Z,2.9
2022-12-18T17:25:26.265Z,2.9
2022-12-18T17:30:23.941Z,2.8
2022-12-18T17:35:54.543Z,2.8
2022-12-18T17:41:07.179Z,2.7
2022-12-18T17:46:18.613Z,2.7
2022-12-18T17:51:28.266Z,2.6
2022-12-18T17:56:59.948Z,2.5
2022-12-18T18:02:13.090Z,2.5
2022-12-18T18:07:43.478Z,2.4
2022-12-18T18:13:17.377Z,2.3
2022-12-18T18:18:37.331Z,2.3
2022-12-18T18:23:36.755Z,2.1
2022-12-18T18:28:34.477Z,2.1
2022-12-18T18:33:15.325Z,2
2022-12-18T18:39:05.415Z,1.9
2022-12-18T18:44:01.546Z,1.8
2022-12-18T18:49:30.308Z,1.7
2022-12-18T18:54:34.480Z,1.6
2022-12-18T19:01:10.694Z,1.6
2022-12-18T19:06:20.196Z,1.5
2022-12-18T19:11:36.798Z,1.4
2022-12-18T19:16:53.519Z,1.3
2022-12-18T19:22:30.769Z,1.3
2022-12-18T19:29:02.245Z,1.2
2022-12-18T19:34:55.337Z,1.1
2022-12-18T19:40:17.960Z,1.1
2022-12-18T19:45:39.896Z,1
2022-12-18T19:51:21.679Z,0.9
2022-12-18T19:57:11.718Z,0.9
2022-12-18T20:02:42.174Z,0.9
2022-12-18T20:08:59.584Z,0.8
2022-12-18T20:14:58.000Z,0.7
2022-12-18T20:20:42.325Z,0.6
2022-12-18T20:26:09.150Z,0.6
2022-12-18T20:31:51.767Z,0.5
2022-12-18T20:37:28.597Z,0.4
2022-12-18T20:43:23.746Z,0.4
2022-12-18T20:49:17.773Z,0.3
2022-12-18T20:55:02.610Z,0.3
2022-12-18T21:00:40.702Z,0.3
2022-12-18T21:06:23.300Z,0.2
2022-12-18T21:12:00.777Z,0.1
2022-12-18T21:18:00.957Z,0.1
2022-12-18T21:23:37.448Z,0
2022-12-18T21:29:26.468Z,0
2022-12-18T21:35:04.997Z,-0.1
2022-12-18T21:40:52.725Z,-0.1
2022-12-18T21:46:21.299Z,-0.1
2022-12-18T21:52:11.718Z,-0.2
2022-12-18T21:58:03.750Z,-0.3
2022-12-18T22:04:29.935Z,-0.3
2022-12-18T22:10:13.747Z,-0.3
2022-12-18T22:15:55.484Z,-0.4
2022-12-18T22:21:51.520Z,-0.4
2022-12-18T22:27:19.154Z,-0.4
2022-12-18T22:33:04.825Z,-0.4
2022-12-18T22:38:53.488Z,-0.5
2022-12-18T22:44:44.402Z,-0.5
2022-12-18T22:50:22.558Z,-0.5
2022-12-18T22:56:09.323Z,-0.6
2022-12-18T23:01:58.882Z,-0.6
2022-12-18T23:07:29.138Z,-0.6
2022-12-18T23:13:06.976Z,-0.6
2022-12-18T23:18:39.945Z,-0.6
2022-12-18T23:24:30.826Z,-0.6
2022-12-18T23:29:59.979Z,-0.6
2022-12-18T23:35:43.819Z,-0.6
2022-12-18T23:42:26.221Z,-0.7
2022-12-18T23:47:58.425Z,-0.7
2022-12-18T23:53:40.815Z,-0.7
2022-12-18T23:59:26.946Z,-0.7
